sensor_id;sensor_type;location;lat;lon;timestamp;P1;durP1;ratioP1;P2;durP2;ratioP2
43988;SDS011;54163;51.386;7.178;2022-08-04T00:02:18;816.07;;;617.20;;
43988;SDS011;54163;51.386;7.178;2022-08-04T00:04:52;831.37;;;654.93;;
43988;SDS011;54163;51.386;7.178;2022-08-04T00:07:25;818.17;;;611.80;;
43988;SDS011;54163;51.386;7.178;2022-08-04T00:10:02;819.00;;;613.93;;
43988;SDS011;54163;51.386;7.178;2022-08-04T00:12:31;831.73;;;654.33;;
43988;SDS011;54163;51.386;7.178;2022-08-04T00:15:02;828.60;;;650.20;;
43988;SDS011;54163;51.386;7.178;2022-08-04T00:17:33;817.00;;;624.23;;
43988;SDS011;54163;51.386;7.178;2022-08-04T00:20:05;807.70;;;591.93;;
43988;SDS011;54163;51.386;7.178;2022-08-04T00:22:35;833.90;;;651.03;;
43988;SDS011;54163;51.386;7.178;2022-08-04T00:25:06;812.33;;;592.20;;
43988;SDS011;54163;51.386;7.178;2022-08-04T00:27:33;812.13;;;591.37;;
43988;SDS011;54163;51.386;7.178;2022-08-04T00:30:02;823.83;;;639.43;;
43988;SDS011;54163;51.386;7.178;2022-08-04T00:32:30;811.13;;;588.63;;
43988;SDS011;54163;51.386;7.178;2022-08-04T00:34:58;809.53;;;588.20;;
43988;SDS011;54163;51.386;7.178;2022-08-04T00:37:26;811.03;;;594.40;;
43988;SDS011;54163;51.386;7.178;2022-08-04T00:39:54;814.53;;;598.07;;
43988;SDS011;54163;51.386;7.178;2022-08-04T00:42:33;824.07;;;606.20;;
43988;SDS011;54163;51.386;7.178;2022-08-04T00:48:15;800.47;;;558.43;;
43988;SDS011;54163;51.386;7.178;2022-08-04T00:50:59;803.37;;;571.40;;
43988;SDS011;54163;51.386;7.178;2022-08-04T00:53:39;808.70;;;573.87;;
43988;SDS011;54163;51.386;7.178;2022-08-04T00:56:21;806.30;;;577.03;;
43988;SDS011;54163;51.386;7.178;2022-08-04T00:59:09;820.33;;;602.77;;
43988;SDS011;54163;51.386;7.178;2022-08-04T01:01:46;809.63;;;593.80;;
43988;SDS011;54163;51.386;7.178;2022-08-04T01:04:23;809.57;;;590.57;;
43988;SDS011;54163;51.386;7.178;2022-08-04T01:07:13;801.57;;;554.57;;
43988;SDS011;54163;51.386;7.178;2022-08-04T01:10:01;809.03;;;585.57;;
43988;SDS011;54163;51.386;7.178;2022-08-04T01:12:37;786.07;;;520.43;;
43988;SDS011;54163;51.386;7.178;2022-08-04T01:15:20;814.70;;;605.43;;
43988;SDS011;54163;51.386;7.178;2022-08-04T01:18:04;809.63;;;583.73;;
43988;SDS011;54163;51.386;7.178;2022-08-04T01:20:33;808.50;;;584.50;;
43988;SDS011;54163;51.386;7.178;2022-08-04T01:23:17;815.80;;;587.63;;
43988;SDS011;54163;51.386;7.178;2022-08-04T01:26:27;827.97;;;624.83;;
43988;SDS011;54163;51.386;7.178;2022-08-04T01:29:15;828.53;;;621.47;;
43988;SDS011;54163;51.386;7.178;2022-08-04T01:31:54;801.57;;;542.77;;
43988;SDS011;54163;51.386;7.178;2022-08-04T01:34:27;807.43;;;573.13;;
43988;SDS011;54163;51.386;7.178;2022-08-04T01:36:58;811.70;;;563.20;;
43988;SDS011;54163;51.386;7.178;2022-08-04T01:39:32;824.00;;;614.93;;
43988;SDS011;54163;51.386;7.178;2022-08-04T01:42:08;803.87;;;571.57;;
43988;SDS011;54163;51.386;7.178;2022-08-04T01:44:38;811.93;;;567.00;;
43988;SDS011;54163;51.386;7.178;2022-08-04T01:47:07;804.50;;;552.60;;
43988;SDS011;54163;51.386;7.178;2022-08-04T01:49:36;805.37;;;574.30;;
43988;SDS011;54163;51.386;7.178;2022-08-04T01:52:08;808.77;;;570.10;;
43988;SDS011;54163;51.386;7.178;2022-08-04T01:54:36;806.70;;;582.93;;
43988;SDS011;54163;51.386;7.178;2022-08-04T01:57:05;804.90;;;576.43;;
43988;SDS011;54163;51.386;7.178;2022-08-04T01:59:33;806.37;;;560.00;;
43988;SDS011;54163;51.386;7.178;2022-08-04T02:02:03;808.93;;;555.47;;
43988;SDS011;54163;51.386;7.178;2022-08-04T02:04:30;806.57;;;561.80;;
43988;SDS011;54163;51.386;7.178;2022-08-04T02:07:02;804.37;;;569.00;;
43988;SDS011;54163;51.386;7.178;2022-08-04T02:09:38;804.40;;;568.67;;
43988;SDS011;54163;51.386;7.178;2022-08-04T02:12:15;805.47;;;553.73;;
43988;SDS011;54163;51.386;7.178;2022-08-04T02:14:55;824.50;;;612.10;;
43988;SDS011;54163;51.386;7.178;2022-08-04T02:17:28;783.57;;;527.90;;
43988;SDS011;54163;51.386;7.178;2022-08-04T02:20:03;817.67;;;593.00;;
43988;SDS011;54163;51.386;7.178;2022-08-04T02:22:36;809.10;;;565.40;;
43988;SDS011;54163;51.386;7.178;2022-08-04T02:25:07;796.90;;;526.80;;
43988;SDS011;54163;51.386;7.178;2022-08-04T02:27:49;793.60;;;527.60;;
43988;SDS011;54163;51.386;7.178;2022-08-04T02:30:23;799.10;;;533.17;;
43988;SDS011;54163;51.386;7.178;2022-08-04T02:32:59;814.10;;;570.93;;
43988;SDS011;54163;51.386;7.178;2022-08-04T02:35:30;800.83;;;523.60;;
43988;SDS011;54163;51.386;7.178;2022-08-04T02:38:06;792.87;;;509.13;;
43988;SDS011;54163;51.386;7.178;2022-08-04T02:40:42;798.43;;;532.50;;
43988;SDS011;54163;51.386;7.178;2022-08-04T02:43:10;812.00;;;567.10;;
43988;SDS011;54163;51.386;7.178;2022-08-04T02:45:38;806.27;;;564.10;;
43988;SDS011;54163;51.386;7.178;2022-08-04T02:48:08;796.43;;;513.03;;
43988;SDS011;54163;51.386;7.178;2022-08-04T02:50:36;810.87;;;568.93;;
43988;SDS011;54163;51.386;7.178;2022-08-04T02:53:04;792.37;;;504.30;;
43988;SDS011;54163;51.386;7.178;2022-08-04T02:55:39;801.33;;;521.87;;
43988;SDS011;54163;51.386;7.178;2022-08-04T02:58:09;787.17;;;488.77;;
43988;SDS011;54163;51.386;7.178;2022-08-04T03:00:39;797.57;;;538.83;;
43988;SDS011;54163;51.386;7.178;2022-08-04T03:03:12;794.23;;;507.33;;
43988;SDS011;54163;51.386;7.178;2022-08-04T03:05:52;809.77;;;552.20;;
43988;SDS011;54163;51.386;7.178;2022-08-04T03:08:47;781.83;;;458.03;;
43988;SDS011;54163;51.386;7.178;2022-08-04T03:14:40;788.10;;;493.57;;
43988;SDS011;54163;51.386;7.178;2022-08-04T03:17:30;797.37;;;526.47;;
43988;SDS011;54163;51.386;7.178;2022-08-04T03:20:46;789.17;;;468.20;;
43988;SDS011;54163;51.386;7.178;2022-08-04T03:23:59;788.23;;;507.30;;
43988;SDS011;54163;51.386;7.178;2022-08-04T03:27:13;794.67;;;500.57;;
43988;SDS011;54163;51.386;7.178;2022-08-04T03:30:05;786.47;;;471.17;;
43988;SDS011;54163;51.386;7.178;2022-08-04T03:41:55;800.57;;;516.47;;
43988;SDS011;54163;51.386;7.178;2022-08-04T03:44:47;785.87;;;469.37;;
43988;SDS011;54163;51.386;7.178;2022-08-04T03:47:33;792.07;;;499.67;;
43988;SDS011;54163;51.386;7.178;2022-08-04T03:53:30;801.70;;;525.07;;
43988;SDS011;54163;51.386;7.178;2022-08-04T03:56:18;794.47;;;501.63;;
43988;SDS011;54163;51.386;7.178;2022-08-04T03:59:07;788.87;;;493.00;;
43988;SDS011;54163;51.386;7.178;2022-08-04T04:04:51;787.03;;;470.60;;
43988;SDS011;54163;51.386;7.178;2022-08-04T04:07:38;782.20;;;474.00;;
43988;SDS011;54163;51.386;7.178;2022-08-04T04:14:19;791.23;;;489.37;;
43988;SDS011;54163;51.386;7.178;2022-08-04T04:17:00;781.47;;;477.03;;
43988;SDS011;54163;51.386;7.178;2022-08-04T04:19:38;798.57;;;533.40;;
43988;SDS011;54163;51.386;7.178;2022-08-04T04:22:27;803.10;;;531.40;;
43988;SDS011;54163;51.386;7.178;2022-08-04T04:28:00;805.70;;;544.60;;
43988;SDS011;54163;51.386;7.178;2022-08-04T04:31:09;760.03;;;419.40;;
43988;SDS011;54163;51.386;7.178;2022-08-04T04:33:53;818.97;;;511.70;;
43988;SDS011;54163;51.386;7.178;2022-08-04T04:36:33;788.70;;;487.13;;
43988;SDS011;54163;51.386;7.178;2022-08-04T04:39:12;790.33;;;489.90;;
43988;SDS011;54163;51.386;7.178;2022-08-04T04:41:58;782.83;;;477.17;;
43988;SDS011;54163;51.386;7.178;2022-08-04T04:44:41;796.47;;;511.80;;
43988;SDS011;54163;51.386;7.178;2022-08-04T04:47:21;802.33;;;534.70;;
43988;SDS011;54163;51.386;7.178;2022-08-04T04:49:58;802.27;;;501.67;;
43988;SDS011;54163;51.386;7.178;2022-08-04T04:52:35;774.67;;;441.17;;
43988;SDS011;54163;51.386;7.178;2022-08-04T04:55:09;797.73;;;509.30;;
43988;SDS011;54163;51.386;7.178;2022-08-04T04:57:43;776.27;;;482.07;;
43988;SDS011;54163;51.386;7.178;2022-08-04T05:00:12;773.50;;;443.13;;
43988;SDS011;54163;51.386;7.178;2022-08-04T05:02:57;798.73;;;529.27;;
43988;SDS011;54163;51.386;7.178;2022-08-04T05:05:59;805.57;;;549.27;;
43988;SDS011;54163;51.386;7.178;2022-08-04T05:08:42;775.00;;;438.30;;
43988;SDS011;54163;51.386;7.178;2022-08-04T05:11:43;799.70;;;507.13;;
43988;SDS011;54163;51.386;7.178;2022-08-04T05:14:20;789.63;;;499.73;;
43988;SDS011;54163;51.386;7.178;2022-08-04T05:19:30;817.30;;;486.90;;
43988;SDS011;54163;51.386;7.178;2022-08-04T05:22:10;775.90;;;454.47;;
43988;SDS011;54163;51.386;7.178;2022-08-04T05:24:44;784.37;;;483.73;;
43988;SDS011;54163;51.386;7.178;2022-08-04T05:27:15;798.70;;;518.37;;
43988;SDS011;54163;51.386;7.178;2022-08-04T05:29:49;798.30;;;488.97;;
43988;SDS011;54163;51.386;7.178;2022-08-04T05:32:19;782.63;;;470.70;;
43988;SDS011;54163;51.386;7.178;2022-08-04T05:34:55;798.23;;;520.03;;
43988;SDS011;54163;51.386;7.178;2022-08-04T05:37:26;799.47;;;536.20;;
43988;SDS011;54163;51.386;7.178;2022-08-04T05:39:57;803.53;;;540.27;;
43988;SDS011;54163;51.386;7.178;2022-08-04T05:42:28;786.10;;;462.83;;
43988;SDS011;54163;51.386;7.178;2022-08-04T05:44:57;788.83;;;479.57;;
43988;SDS011;54163;51.386;7.178;2022-08-04T05:47:24;791.43;;;479.97;;
43988;SDS011;54163;51.386;7.178;2022-08-04T05:49:56;786.67;;;470.80;;
43988;SDS011;54163;51.386;7.178;2022-08-04T05:52:23;821.50;;;580.40;;
43988;SDS011;54163;51.386;7.178;2022-08-04T05:54:51;778.70;;;442.17;;
43988;SDS011;54163;51.386;7.178;2022-08-04T05:57:20;802.93;;;519.77;;
43988;SDS011;54163;51.386;7.178;2022-08-04T05:59:48;814.13;;;581.63;;
43988;SDS011;54163;51.386;7.178;2022-08-04T06:02:18;800.20;;;534.90;;
43988;SDS011;54163;51.386;7.178;2022-08-04T06:04:46;788.10;;;476.93;;
43988;SDS011;54163;51.386;7.178;2022-08-04T06:07:16;793.10;;;513.47;;
43988;SDS011;54163;51.386;7.178;2022-08-04T06:09:44;786.60;;;480.63;;
43988;SDS011;54163;51.386;7.178;2022-08-04T06:12:13;782.47;;;477.03;;
43988;SDS011;54163;51.386;7.178;2022-08-04T06:14:44;805.03;;;562.53;;
43988;SDS011;54163;51.386;7.178;2022-08-04T06:17:20;805.33;;;547.77;;
43988;SDS011;54163;51.386;7.178;2022-08-04T06:19:50;789.33;;;497.53;;
43988;SDS011;54163;51.386;7.178;2022-08-04T06:22:20;808.07;;;569.53;;
43988;SDS011;54163;51.386;7.178;2022-08-04T06:24:49;817.03;;;586.47;;
43988;SDS011;54163;51.386;7.178;2022-08-04T06:27:20;812.07;;;542.43;;
43988;SDS011;54163;51.386;7.178;2022-08-04T06:29:48;788.27;;;487.53;;
43988;SDS011;54163;51.386;7.178;2022-08-04T06:32:16;816.63;;;568.43;;
43988;SDS011;54163;51.386;7.178;2022-08-04T06:34:53;804.37;;;541.53;;
43988;SDS011;54163;51.386;7.178;2022-08-04T06:37:25;799.80;;;533.60;;
43988;SDS011;54163;51.386;7.178;2022-08-04T06:39:53;816.50;;;585.73;;
43988;SDS011;54163;51.386;7.178;2022-08-04T06:42:21;815.20;;;589.17;;
43988;SDS011;54163;51.386;7.178;2022-08-04T06:44:54;815.83;;;557.10;;
43988;SDS011;54163;51.386;7.178;2022-08-04T06:47:24;805.80;;;552.73;;
43988;SDS011;54163;51.386;7.178;2022-08-04T06:49:53;822.47;;;607.07;;
43988;SDS011;54163;51.386;7.178;2022-08-04T06:52:22;819.83;;;607.43;;
43988;SDS011;54163;51.386;7.178;2022-08-04T06:54:51;791.67;;;512.87;;
43988;SDS011;54163;51.386;7.178;2022-08-04T06:57:22;820.53;;;589.67;;
43988;SDS011;54163;51.386;7.178;2022-08-04T06:59:54;807.17;;;544.40;;
43988;SDS011;54163;51.386;7.178;2022-08-04T07:02:24;824.93;;;625.07;;
43988;SDS011;54163;51.386;7.178;2022-08-04T07:04:52;815.80;;;596.07;;
43988;SDS011;54163;51.386;7.178;2022-08-04T07:07:20;821.77;;;606.40;;
43988;SDS011;54163;51.386;7.178;2022-08-04T07:09:51;824.27;;;598.30;;
43988;SDS011;54163;51.386;7.178;2022-08-04T07:12:18;825.23;;;626.37;;
43988;SDS011;54163;51.386;7.178;2022-08-04T07:14:47;831.53;;;649.07;;
43988;SDS011;54163;51.386;7.178;2022-08-04T07:17:15;813.57;;;561.70;;
43988;SDS011;54163;51.386;7.178;2022-08-04T07:19:43;821.40;;;621.67;;
43988;SDS011;54163;51.386;7.178;2022-08-04T07:22:10;827.67;;;631.33;;
43988;SDS011;54163;51.386;7.178;2022-08-04T07:24:38;844.73;;;679.77;;
43988;SDS011;54163;51.386;7.178;2022-08-04T07:27:09;854.03;;;685.50;;
43988;SDS011;54163;51.386;7.178;2022-08-04T07:29:36;834.20;;;658.47;;
43988;SDS011;54163;51.386;7.178;2022-08-04T07:32:04;836.43;;;629.77;;
43988;SDS011;54163;51.386;7.178;2022-08-04T07:34:32;829.47;;;643.83;;
43988;SDS011;54163;51.386;7.178;2022-08-04T07:37:00;857.40;;;714.30;;
43988;SDS011;54163;51.386;7.178;2022-08-04T07:39:28;841.33;;;674.90;;
43988;SDS011;54163;51.386;7.178;2022-08-04T07:41:58;843.30;;;676.20;;
43988;SDS011;54163;51.386;7.178;2022-08-04T07:44:28;854.73;;;704.70;;
43988;SDS011;54163;51.386;7.178;2022-08-04T07:46:56;861.53;;;732.93;;
43988;SDS011;54163;51.386;7.178;2022-08-04T07:49:23;870.93;;;746.17;;
43988;SDS011;54163;51.386;7.178;2022-08-04T07:51:52;867.47;;;737.83;;
43988;SDS011;54163;51.386;7.178;2022-08-04T07:54:20;846.90;;;693.87;;
43988;SDS011;54163;51.386;7.178;2022-08-04T07:56:47;830.40;;;640.20;;
43988;SDS011;54163;51.386;7.178;2022-08-04T07:59:16;843.67;;;656.80;;
43988;SDS011;54163;51.386;7.178;2022-08-04T08:01:45;865.87;;;750.63;;
43988;SDS011;54163;51.386;7.178;2022-08-04T08:04:13;850.17;;;710.63;;
43988;SDS011;54163;51.386;7.178;2022-08-04T08:06:42;839.53;;;673.27;;
43988;SDS011;54163;51.386;7.178;2022-08-04T08:09:10;831.83;;;669.83;;
43988;SDS011;54163;51.386;7.178;2022-08-04T08:11:37;871.97;;;759.43;;
43988;SDS011;54163;51.386;7.178;2022-08-04T08:14:05;879.77;;;772.07;;
43988;SDS011;54163;51.386;7.178;2022-08-04T08:16:34;840.63;;;670.00;;
43988;SDS011;54163;51.386;7.178;2022-08-04T08:19:02;857.03;;;722.13;;
43988;SDS011;54163;51.386;7.178;2022-08-04T08:21:29;861.13;;;723.50;;
43988;SDS011;54163;51.386;7.178;2022-08-04T08:23:56;866.33;;;750.47;;
43988;SDS011;54163;51.386;7.178;2022-08-04T08:26:23;882.27;;;769.10;;
43988;SDS011;54163;51.386;7.178;2022-08-04T08:28:50;864.07;;;746.90;;
43988;SDS011;54163;51.386;7.178;2022-08-04T08:31:18;891.57;;;791.47;;
43988;SDS011;54163;51.386;7.178;2022-08-04T08:33:45;863.53;;;739.67;;
43988;SDS011;54163;51.386;7.178;2022-08-04T08:36:18;869.90;;;757.93;;
43988;SDS011;54163;51.386;7.178;2022-08-04T08:38:52;869.87;;;758.20;;
43988;SDS011;54163;51.386;7.178;2022-08-04T08:41:48;867.80;;;750.60;;
43988;SDS011;54163;51.386;7.178;2022-08-04T08:44:33;870.27;;;758.67;;
43988;SDS011;54163;51.386;7.178;2022-08-04T08:47:34;848.97;;;716.83;;
43988;SDS011;54163;51.386;7.178;2022-08-04T08:50:17;853.73;;;736.37;;
43988;SDS011;54163;51.386;7.178;2022-08-04T08:53:15;868.30;;;765.27;;
43988;SDS011;54163;51.386;7.178;2022-08-04T08:55:59;855.97;;;743.83;;
43988;SDS011;54163;51.386;7.178;2022-08-04T08:58:49;866.50;;;755.47;;
43988;SDS011;54163;51.386;7.178;2022-08-04T09:01:36;890.07;;;792.37;;
43988;SDS011;54163;51.386;7.178;2022-08-04T09:07:26;864.27;;;747.37;;
43988;SDS011;54163;51.386;7.178;2022-08-04T09:10:11;912.87;;;814.27;;
43988;SDS011;54163;51.386;7.178;2022-08-04T09:12:45;877.63;;;779.90;;
43988;SDS011;54163;51.386;7.178;2022-08-04T09:15:21;911.97;;;813.37;;
43988;SDS011;54163;51.386;7.178;2022-08-04T09:17:56;850.57;;;748.90;;
43988;SDS011;54163;51.386;7.178;2022-08-04T09:20:28;874.83;;;778.97;;
43988;SDS011;54163;51.386;7.178;2022-08-04T09:23:05;875.53;;;779.43;;
43988;SDS011;54163;51.386;7.178;2022-08-04T09:25:40;881.00;;;784.70;;
43988;SDS011;54163;51.386;7.178;2022-08-04T09:28:17;862.03;;;761.20;;
43988;SDS011;54163;51.386;7.178;2022-08-04T09:30:51;870.17;;;774.43;;
43988;SDS011;54163;51.386;7.178;2022-08-04T09:33:27;886.33;;;790.10;;
43988;SDS011;54163;51.386;7.178;2022-08-04T09:36:09;888.90;;;792.30;;
43988;SDS011;54163;51.386;7.178;2022-08-04T09:38:41;897.53;;;800.37;;
43988;SDS011;54163;51.386;7.178;2022-08-04T09:41:20;851.87;;;753.53;;
43988;SDS011;54163;51.386;7.178;2022-08-04T09:44:01;901.00;;;803.93;;
43988;SDS011;54163;51.386;7.178;2022-08-04T09:46:39;875.63;;;779.83;;
43988;SDS011;54163;51.386;7.178;2022-08-04T09:49:13;866.23;;;770.93;;
43988;SDS011;54163;51.386;7.178;2022-08-04T09:51:48;898.67;;;802.10;;
43988;SDS011;54163;51.386;7.178;2022-08-04T09:54:26;870.53;;;775.23;;
43988;SDS011;54163;51.386;7.178;2022-08-04T09:57:14;915.90;;;818.43;;
43988;SDS011;54163;51.386;7.178;2022-08-04T09:59:57;908.20;;;810.43;;
43988;SDS011;54163;51.386;7.178;2022-08-04T10:02:38;877.77;;;782.17;;
43988;SDS011;54163;51.386;7.178;2022-08-04T10:05:13;907.27;;;810.50;;
43988;SDS011;54163;51.386;7.178;2022-08-04T10:07:56;952.07;;;852.60;;
43988;SDS011;54163;51.386;7.178;2022-08-04T10:10:37;895.27;;;799.00;;
43988;SDS011;54163;51.386;7.178;2022-08-04T10:13:20;877.13;;;782.00;;
43988;SDS011;54163;51.386;7.178;2022-08-04T10:15:58;888.20;;;792.57;;
43988;SDS011;54163;51.386;7.178;2022-08-04T10:18:42;895.37;;;799.67;;
43988;SDS011;54163;51.386;7.178;2022-08-04T10:21:18;926.10;;;828.57;;
43988;SDS011;54163;51.386;7.178;2022-08-04T10:23:58;900.10;;;803.63;;
43988;SDS011;54163;51.386;7.178;2022-08-04T10:26:35;890.57;;;794.90;;
43988;SDS011;54163;51.386;7.178;2022-08-04T10:29:13;917.53;;;819.73;;
43988;SDS011;54163;51.386;7.178;2022-08-04T10:31:46;904.17;;;807.50;;
43988;SDS011;54163;51.386;7.178;2022-08-04T10:34:21;904.23;;;808.07;;
43988;SDS011;54163;51.386;7.178;2022-08-04T10:36:55;912.40;;;815.87;;
43988;SDS011;54163;51.386;7.178;2022-08-04T10:39:28;913.00;;;816.33;;
43988;SDS011;54163;51.386;7.178;2022-08-04T10:42:02;968.63;;;868.90;;
43988;SDS011;54163;51.386;7.178;2022-08-04T10:44:39;958.00;;;859.43;;
43988;SDS011;54163;51.386;7.178;2022-08-04T10:47:18;946.10;;;847.23;;
43988;SDS011;54163;51.386;7.178;2022-08-04T10:49:49;931.37;;;834.23;;
43988;SDS011;54163;51.386;7.178;2022-08-04T10:52:22;957.60;;;858.60;;
43988;SDS011;54163;51.386;7.178;2022-08-04T10:54:58;946.77;;;848.57;;
43988;SDS011;54163;51.386;7.178;2022-08-04T10:57:33;967.03;;;867.47;;
43988;SDS011;54163;51.386;7.178;2022-08-04T11:00:06;853.90;;;764.67;;
43988;SDS011;54163;51.386;7.178;2022-08-04T11:02:40;952.47;;;854.00;;
43988;SDS011;54163;51.386;7.178;2022-08-04T11:05:19;921.33;;;824.73;;
43988;SDS011;54163;51.386;7.178;2022-08-04T11:07:53;984.50;;;884.37;;
43988;SDS011;54163;51.386;7.178;2022-08-04T11:10:26;992.87;;;892.07;;
43988;SDS011;54163;51.386;7.178;2022-08-04T11:12:56;930.70;;;833.10;;
43988;SDS011;54163;51.386;7.178;2022-08-04T11:15:34;844.37;;;756.23;;
43988;SDS011;54163;51.386;7.178;2022-08-04T11:18:06;854.93;;;765.77;;
43988;SDS011;54163;51.386;7.178;2022-08-04T11:20:41;941.57;;;844.20;;
43988;SDS011;54163;51.386;7.178;2022-08-04T11:23:12;916.13;;;819.77;;
43988;SDS011;54163;51.386;7.178;2022-08-04T11:25:48;954.50;;;856.13;;
43988;SDS011;54163;51.386;7.178;2022-08-04T11:28:23;951.37;;;853.57;;
43988;SDS011;54163;51.386;7.178;2022-08-04T11:31:01;957.43;;;859.50;;
43988;SDS011;54163;51.386;7.178;2022-08-04T11:33:33;952.23;;;854.40;;
43988;SDS011;54163;51.386;7.178;2022-08-04T11:36:06;950.43;;;852.67;;
43988;SDS011;54163;51.386;7.178;2022-08-04T11:38:43;956.27;;;857.97;;
43988;SDS011;54163;51.386;7.178;2022-08-04T11:41:17;955.37;;;857.23;;
43988;SDS011;54163;51.386;7.178;2022-08-04T11:43:50;917.33;;;821.50;;
43988;SDS011;54163;51.386;7.178;2022-08-04T11:46:23;912.70;;;817.23;;
43988;SDS011;54163;51.386;7.178;2022-08-04T11:48:57;958.43;;;860.60;;
43988;SDS011;54163;51.386;7.178;2022-08-04T11:51:28;923.67;;;827.53;;
43988;SDS011;54163;51.386;7.178;2022-08-04T11:53:59;972.93;;;873.93;;
43988;SDS011;54163;51.386;7.178;2022-08-04T11:56:26;968.90;;;869.83;;
43988;SDS011;54163;51.386;7.178;2022-08-04T11:58:54;958.37;;;860.27;;
43988;SDS011;54163;51.386;7.178;2022-08-04T12:01:27;944.57;;;847.27;;
43988;SDS011;54163;51.386;7.178;2022-08-04T12:04:04;945.53;;;848.03;;
43988;SDS011;54163;51.386;7.178;2022-08-04T12:06:41;967.57;;;868.97;;
43988;SDS011;54163;51.386;7.178;2022-08-04T12:09:16;934.53;;;837.53;;
43988;SDS011;54163;51.386;7.178;2022-08-04T12:11:51;949.40;;;851.90;;
43988;SDS011;54163;51.386;7.178;2022-08-04T12:14:28;966.57;;;867.20;;
43988;SDS011;54163;51.386;7.178;2022-08-04T12:17:05;957.93;;;859.67;;
43988;SDS011;54163;51.386;7.178;2022-08-04T12:19:35;938.43;;;840.97;;
43988;SDS011;54163;51.386;7.178;2022-08-04T12:22:07;936.50;;;838.67;;
43988;SDS011;54163;51.386;7.178;2022-08-04T12:24:38;902.27;;;806.83;;
43988;SDS011;54163;51.386;7.178;2022-08-04T12:27:10;934.03;;;837.10;;
43988;SDS011;54163;51.386;7.178;2022-08-04T12:29:41;962.30;;;863.43;;
43988;SDS011;54163;51.386;7.178;2022-08-04T12:32:21;940.13;;;842.43;;
43988;SDS011;54163;51.386;7.178;2022-08-04T12:34:57;929.43;;;832.73;;
43988;SDS011;54163;51.386;7.178;2022-08-04T12:37:33;904.57;;;808.70;;
43988;SDS011;54163;51.386;7.178;2022-08-04T12:40:08;946.93;;;848.87;;
43988;SDS011;54163;51.386;7.178;2022-08-04T12:42:41;929.17;;;832.60;;
43988;SDS011;54163;51.386;7.178;2022-08-04T12:45:14;907.43;;;811.30;;
43988;SDS011;54163;51.386;7.178;2022-08-04T12:47:43;952.47;;;854.47;;
43988;SDS011;54163;51.386;7.178;2022-08-04T12:50:13;897.93;;;802.93;;
43988;SDS011;54163;51.386;7.178;2022-08-04T12:52:43;907.87;;;812.73;;
43988;SDS011;54163;51.386;7.178;2022-08-04T12:55:13;911.73;;;815.40;;
43988;SDS011;54163;51.386;7.178;2022-08-04T12:57:43;911.90;;;816.33;;
43988;SDS011;54163;51.386;7.178;2022-08-04T13:00:12;911.23;;;815.30;;
43988;SDS011;54163;51.386;7.178;2022-08-04T13:02:50;920.23;;;823.87;;
43988;SDS011;54163;51.386;7.178;2022-08-04T13:05:20;917.77;;;821.53;;
43988;SDS011;54163;51.386;7.178;2022-08-04T13:07:49;919.60;;;823.67;;
43988;SDS011;54163;51.386;7.178;2022-08-04T13:10:19;917.47;;;822.00;;
43988;SDS011;54163;51.386;7.178;2022-08-04T13:12:50;951.40;;;854.33;;
43988;SDS011;54163;51.386;7.178;2022-08-04T13:15:22;966.23;;;868.23;;
43988;SDS011;54163;51.386;7.178;2022-08-04T13:17:54;929.03;;;833.43;;
43988;SDS011;54163;51.386;7.178;2022-08-04T13:20:25;943.97;;;847.63;;
43988;SDS011;54163;51.386;7.178;2022-08-04T13:23:04;981.67;;;883.10;;
43988;SDS011;54163;51.386;7.178;2022-08-04T13:25:33;954.67;;;857.73;;
43988;SDS011;54163;51.386;7.178;2022-08-04T13:28:04;980.13;;;882.03;;
43988;SDS011;54163;51.386;7.178;2022-08-04T13:30:34;965.03;;;867.87;;
43988;SDS011;54163;51.386;7.178;2022-08-04T13:33:04;979.30;;;881.33;;
43988;SDS011;54163;51.386;7.178;2022-08-04T13:35:32;1035.30;;;933.13;;
43988;SDS011;54163;51.386;7.178;2022-08-04T13:38:03;975.77;;;877.60;;
43988;SDS011;54163;51.386;7.178;2022-08-04T13:40:36;962.87;;;865.77;;
43988;SDS011;54163;51.386;7.178;2022-08-04T13:43:07;1039.33;;;937.37;;
43988;SDS011;54163;51.386;7.178;2022-08-04T13:45:35;981.60;;;883.50;;
43988;SDS011;54163;51.386;7.178;2022-08-04T13:48:06;982.77;;;884.20;;
43988;SDS011;54163;51.386;7.178;2022-08-04T13:50:36;986.80;;;888.73;;
43988;SDS011;54163;51.386;7.178;2022-08-04T13:53:09;991.57;;;892.97;;
43988;SDS011;54163;51.386;7.178;2022-08-04T13:55:37;998.07;;;899.23;;
43988;SDS011;54163;51.386;7.178;2022-08-04T13:58:06;982.83;;;884.83;;
43988;SDS011;54163;51.386;7.178;2022-08-04T14:00:38;1046.33;;;944.27;;
43988;SDS011;54163;51.386;7.178;2022-08-04T14:03:09;978.17;;;880.00;;
43988;SDS011;54163;51.386;7.178;2022-08-04T14:05:42;1035.83;;;934.43;;
43988;SDS011;54163;51.386;7.178;2022-08-04T14:08:14;1046.60;;;944.83;;
43988;SDS011;54163;51.386;7.178;2022-08-04T14:10:51;985.77;;;887.50;;
43988;SDS011;54163;51.386;7.178;2022-08-04T14:13:27;1050.40;;;948.33;;
43988;SDS011;54163;51.386;7.178;2022-08-04T14:15:56;1041.27;;;940.07;;
43988;SDS011;54163;51.386;7.178;2022-08-04T14:18:24;995.60;;;896.07;;
43988;SDS011;54163;51.386;7.178;2022-08-04T14:20:56;989.07;;;890.50;;
43988;SDS011;54163;51.386;7.178;2022-08-04T14:23:28;1008.23;;;908.13;;
43988;SDS011;54163;51.386;7.178;2022-08-04T14:26:11;1059.60;;;957.23;;
43988;SDS011;54163;51.386;7.178;2022-08-04T14:28:46;1042.80;;;941.33;;
43988;SDS011;54163;51.386;7.178;2022-08-04T14:31:14;1058.30;;;955.53;;
43988;SDS011;54163;51.386;7.178;2022-08-04T14:33:45;1047.57;;;945.40;;
43988;SDS011;54163;51.386;7.178;2022-08-04T14:36:14;1056.97;;;953.47;;
43988;SDS011;54163;51.386;7.178;2022-08-04T14:38:49;1020.03;;;918.93;;
43988;SDS011;54163;51.386;7.178;2022-08-04T14:41:18;1010.57;;;909.90;;
43988;SDS011;54163;51.386;7.178;2022-08-04T14:43:47;1041.60;;;939.40;;
43988;SDS011;54163;51.386;7.178;2022-08-04T14:46:16;1021.97;;;919.80;;
43988;SDS011;54163;51.386;7.178;2022-08-04T14:49:01;1032.33;;;929.47;;
43988;SDS011;54163;51.386;7.178;2022-08-04T14:51:33;1048.17;;;944.97;;
43988;SDS011;54163;51.386;7.178;2022-08-04T14:54:06;984.30;;;884.23;;
43988;SDS011;54163;51.386;7.178;2022-08-04T14:56:34;1003.70;;;902.50;;
43988;SDS011;54163;51.386;7.178;2022-08-04T14:59:03;1029.67;;;927.57;;
43988;SDS011;54163;51.386;7.178;2022-08-04T15:01:33;1039.47;;;936.83;;
43988;SDS011;54163;51.386;7.178;2022-08-04T15:04:03;1018.00;;;916.47;;
43988;SDS011;54163;51.386;7.178;2022-08-04T15:06:33;1042.77;;;939.60;;
43988;SDS011;54163;51.386;7.178;2022-08-04T15:09:01;975.30;;;875.43;;
43988;SDS011;54163;51.386;7.178;2022-08-04T15:11:30;1028.93;;;926.13;;
43988;SDS011;54163;51.386;7.178;2022-08-04T15:13:57;1024.70;;;922.57;;